sensor_id;sensor_type;location;lat;lon;timestamp;P1;durP1;ratioP1;P2;durP2;ratioP2
22334;SDS011;11335;43.848;25.958;2022-08-19T00:02:37;15.32;;;10.82;;
22334;SDS011;11335;43.848;25.958;2022-08-19T00:05:23;16.80;;;11.25;;
22334;SDS011;11335;43.848;25.958;2022-08-19T00:08:08;15.38;;;11.88;;
22334;SDS011;11335;43.848;25.958;2022-08-19T00:10:54;17.38;;;10.75;;
22334;SDS011;11335;43.848;25.958;2022-08-19T00:13:40;15.63;;;11.32;;
22334;SDS011;11335;43.848;25.958;2022-08-19T00:16:26;15.60;;;11.88;;
22334;SDS011;11335;43.848;25.958;2022-08-19T00:19:12;14.88;;;10.90;;
22334;SDS011;11335;43.848;25.958;2022-08-19T00:21:58;15.73;;;11.70;;
22334;SDS011;11335;43.848;25.958;2022-08-19T00:24:44;14.57;;;11.35;;
22334;SDS011;11335;43.848;25.958;2022-08-19T00:27:30;15.05;;;11.05;;
22334;SDS011;11335;43.848;25.958;2022-08-19T00:30:16;13.10;;;11.70;;
22334;SDS011;11335;43.848;25.958;2022-08-19T00:33:02;14.68;;;11.60;;
22334;SDS011;11335;43.848;25.958;2022-08-19T00:35:48;14.65;;;11.13;;
22334;SDS011;11335;43.848;25.958;2022-08-19T00:38:35;17.98;;;11.38;;
22334;SDS011;11335;43.848;25.958;2022-08-19T00:41:23;17.80;;;11.48;;
22334;SDS011;11335;43.848;25.958;2022-08-19T00:44:12;14.13;;;11.52;;
22334;SDS011;11335;43.848;25.958;2022-08-19T00:47:00;15.18;;;11.10;;
22334;SDS011;11335;43.848;25.958;2022-08-19T00:49:50;12.90;;;11.13;;
22334;SDS011;11335;43.848;25.958;2022-08-19T00:52:40;13.05;;;11.68;;
22334;SDS011;11335;43.848;25.958;2022-08-19T00:55:31;15.38;;;10.98;;
22334;SDS011;11335;43.848;25.958;2022-08-19T00:58:19;14.63;;;11.55;;
22334;SDS011;11335;43.848;25.958;2022-08-19T01:01:07;15.25;;;11.15;;
22334;SDS011;11335;43.848;25.958;2022-08-19T01:03:53;12.23;;;10.50;;
22334;SDS011;11335;43.848;25.958;2022-08-19T01:06:39;14.27;;;11.50;;
22334;SDS011;11335;43.848;25.958;2022-08-19T01:09:26;14.32;;;11.95;;
22334;SDS011;11335;43.848;25.958;2022-08-19T01:12:12;17.85;;;11.52;;
22334;SDS011;11335;43.848;25.958;2022-08-19T01:14:58;18.75;;;12.07;;
22334;SDS011;11335;43.848;25.958;2022-08-19T01:17:45;15.82;;;11.80;;
22334;SDS011;11335;43.848;25.958;2022-08-19T01:20:31;14.90;;;11.50;;
22334;SDS011;11335;43.848;25.958;2022-08-19T01:23:18;14.30;;;11.60;;
22334;SDS011;11335;43.848;25.958;2022-08-19T01:26:04;13.82;;;10.82;;
22334;SDS011;11335;43.848;25.958;2022-08-19T01:28:52;14.38;;;11.00;;
22334;SDS011;11335;43.848;25.958;2022-08-19T01:31:39;16.13;;;11.80;;
22334;SDS011;11335;43.848;25.958;2022-08-19T01:34:25;15.52;;;12.07;;
22334;SDS011;11335;43.848;25.958;2022-08-19T01:37:11;16.33;;;11.65;;
22334;SDS011;11335;43.848;25.958;2022-08-19T01:39:58;17.33;;;12.25;;
22334;SDS011;11335;43.848;25.958;2022-08-19T01:42:44;14.00;;;11.18;;
22334;SDS011;11335;43.848;25.958;2022-08-19T01:45:30;15.75;;;11.45;;
22334;SDS011;11335;43.848;25.958;2022-08-19T01:48:18;18.33;;;11.40;;
22334;SDS011;11335;43.848;25.958;2022-08-19T01:51:04;15.15;;;11.88;;
22334;SDS011;11335;43.848;25.958;2022-08-19T01:53:51;13.85;;;11.77;;
22334;SDS011;11335;43.848;25.958;2022-08-19T01:56:37;15.57;;;12.18;;
22334;SDS011;11335;43.848;25.958;2022-08-19T01:59:24;18.10;;;12.05;;
22334;SDS011;11335;43.848;25.958;2022-08-19T02:02:10;15.85;;;11.65;;
22334;SDS011;11335;43.848;25.958;2022-08-19T02:04:56;16.45;;;11.52;;
22334;SDS011;11335;43.848;25.958;2022-08-19T02:07:41;16.25;;;11.48;;
22334;SDS011;11335;43.848;25.958;2022-08-19T02:10:27;12.70;;;11.20;;
22334;SDS011;11335;43.848;25.958;2022-08-19T02:13:13;14.68;;;11.82;;
22334;SDS011;11335;43.848;25.958;2022-08-19T02:15:59;19.52;;;13.77;;
22334;SDS011;11335;43.848;25.958;2022-08-19T02:18:45;20.88;;;14.15;;
22334;SDS011;11335;43.848;25.958;2022-08-19T02:21:33;19.15;;;15.02;;
22334;SDS011;11335;43.848;25.958;2022-08-19T02:24:19;17.67;;;14.35;;
22334;SDS011;11335;43.848;25.958;2022-08-19T02:27:05;20.02;;;15.13;;
22334;SDS011;11335;43.848;25.958;2022-08-19T02:29:51;19.33;;;14.82;;
22334;SDS011;11335;43.848;25.958;2022-08-19T02:32:38;21.83;;;15.02;;
22334;SDS011;11335;43.848;25.958;2022-08-19T02:35:24;19.10;;;14.52;;
22334;SDS011;11335;43.848;25.958;2022-08-19T02:38:10;18.73;;;15.52;;
22334;SDS011;11335;43.848;25.958;2022-08-19T02:41:18;18.65;;;15.52;;
22334;SDS011;11335;43.848;25.958;2022-08-19T02:44:09;18.58;;;15.38;;
22334;SDS011;11335;43.848;25.958;2022-08-19T02:46:54;18.02;;;14.57;;
22334;SDS011;11335;43.848;25.958;2022-08-19T02:49:40;22.23;;;14.05;;
22334;SDS011;11335;43.848;25.958;2022-08-19T02:52:26;23.98;;;13.75;;
22334;SDS011;11335;43.848;25.958;2022-08-19T02:55:13;21.33;;;14.93;;
22334;SDS011;11335;43.848;25.958;2022-08-19T02:57:59;19.30;;;14.32;;
22334;SDS011;11335;43.848;25.958;2022-08-19T03:00:46;20.25;;;14.95;;
22334;SDS011;11335;43.848;25.958;2022-08-19T03:03:34;22.40;;;14.52;;
22334;SDS011;11335;43.848;25.958;2022-08-19T03:06:20;19.27;;;13.48;;
22334;SDS011;11335;43.848;25.958;2022-08-19T03:09:07;19.42;;;13.98;;
22334;SDS011;11335;43.848;25.958;2022-08-19T03:11:53;19.95;;;14.07;;
22334;SDS011;11335;43.848;25.958;2022-08-19T03:14:38;16.20;;;12.60;;
22334;SDS011;11335;43.848;25.958;2022-08-19T03:17:24;20.27;;;13.65;;
22334;SDS011;11335;43.848;25.958;2022-08-19T03:20:10;18.88;;;13.55;;
22334;SDS011;11335;43.848;25.958;2022-08-19T03:22:56;19.33;;;13.02;;
22334;SDS011;11335;43.848;25.958;2022-08-19T03:25:43;17.38;;;12.90;;
22334;SDS011;11335;43.848;25.958;2022-08-19T03:28:31;22.08;;;13.43;;
22334;SDS011;11335;43.848;25.958;2022-08-19T03:31:19;20.88;;;13.90;;
22334;SDS011;11335;43.848;25.958;2022-08-19T03:34:08;19.23;;;14.15;;
22334;SDS011;11335;43.848;25.958;2022-08-19T03:36:58;23.85;;;14.32;;
22334;SDS011;11335;43.848;25.958;2022-08-19T03:39:45;23.35;;;13.35;;
22334;SDS011;11335;43.848;25.958;2022-08-19T03:42:31;18.92;;;13.90;;
22334;SDS011;11335;43.848;25.958;2022-08-19T03:45:17;21.17;;;13.68;;
22334;SDS011;11335;43.848;25.958;2022-08-19T03:48:03;20.77;;;13.93;;
22334;SDS011;11335;43.848;25.958;2022-08-19T03:50:49;19.00;;;14.80;;
22334;SDS011;11335;43.848;25.958;2022-08-19T03:53:35;24.55;;;13.70;;
22334;SDS011;11335;43.848;25.958;2022-08-19T03:56:21;24.30;;;14.13;;
22334;SDS011;11335;43.848;25.958;2022-08-19T03:59:11;23.33;;;13.80;;
22334;SDS011;11335;43.848;25.958;2022-08-19T04:02:01;20.50;;;14.45;;
22334;SDS011;11335;43.848;25.958;2022-08-19T04:04:54;19.83;;;14.95;;
22334;SDS011;11335;43.848;25.958;2022-08-19T04:07:40;18.75;;;14.05;;
22334;SDS011;11335;43.848;25.958;2022-08-19T04:10:26;20.85;;;15.13;;
22334;SDS011;11335;43.848;25.958;2022-08-19T04:13:16;20.52;;;15.25;;
22334;SDS011;11335;43.848;25.958;2022-08-19T04:16:03;21.27;;;15.02;;
22334;SDS011;11335;43.848;25.958;2022-08-19T04:18:50;21.08;;;15.27;;
22334;SDS011;11335;43.848;25.958;2022-08-19T04:21:35;22.98;;;14.55;;
22334;SDS011;11335;43.848;25.958;2022-08-19T04:24:22;22.42;;;15.70;;
22334;SDS011;11335;43.848;25.958;2022-08-19T04:27:08;24.50;;;15.75;;
22334;SDS011;11335;43.848;25.958;2022-08-19T04:29:54;22.33;;;14.68;;
22334;SDS011;11335;43.848;25.958;2022-08-19T04:32:40;24.30;;;14.93;;
22334;SDS011;11335;43.848;25.958;2022-08-19T04:35:34;20.20;;;14.48;;
22334;SDS011;11335;43.848;25.958;2022-08-19T04:38:24;20.85;;;12.98;;
22334;SDS011;11335;43.848;25.958;2022-08-19T04:41:09;18.75;;;13.13;;
22334;SDS011;11335;43.848;25.958;2022-08-19T04:44:14;18.77;;;14.20;;
22334;SDS011;11335;43.848;25.958;2022-08-19T04:47:03;18.77;;;14.18;;
22334;SDS011;11335;43.848;25.958;2022-08-19T04:49:50;22.17;;;13.40;;
22334;SDS011;11335;43.848;25.958;2022-08-19T04:52:37;19.20;;;14.73;;
22334;SDS011;11335;43.848;25.958;2022-08-19T04:55:27;21.15;;;13.93;;
22334;SDS011;11335;43.848;25.958;2022-08-19T04:58:13;23.10;;;15.38;;
22334;SDS011;11335;43.848;25.958;2022-08-19T05:00:58;23.55;;;14.50;;
22334;SDS011;11335;43.848;25.958;2022-08-19T05:03:47;22.83;;;13.85;;
22334;SDS011;11335;43.848;25.958;2022-08-19T05:06:34;22.17;;;14.40;;
22334;SDS011;11335;43.848;25.958;2022-08-19T05:09:21;19.45;;;14.63;;
22334;SDS011;11335;43.848;25.958;2022-08-19T05:12:07;21.15;;;14.32;;
22334;SDS011;11335;43.848;25.958;2022-08-19T05:14:53;22.65;;;15.45;;
22334;SDS011;11335;43.848;25.958;2022-08-19T05:17:42;22.67;;;14.50;;
22334;SDS011;11335;43.848;25.958;2022-08-19T05:20:47;25.52;;;16.10;;
22334;SDS011;11335;43.848;25.958;2022-08-19T05:23:51;21.00;;;15.32;;
22334;SDS011;11335;43.848;25.958;2022-08-19T05:26:41;21.65;;;15.32;;
22334;SDS011;11335;43.848;25.958;2022-08-19T05:29:32;22.35;;;15.18;;
22334;SDS011;11335;43.848;25.958;2022-08-19T05:32:19;23.27;;;15.10;;
22334;SDS011;11335;43.848;25.958;2022-08-19T05:35:07;22.05;;;13.98;;
22334;SDS011;11335;43.848;25.958;2022-08-19T05:37:53;21.95;;;16.70;;
22334;SDS011;11335;43.848;25.958;2022-08-19T05:40:39;25.90;;;15.90;;
22334;SDS011;11335;43.848;25.958;2022-08-19T05:43:25;28.98;;;17.30;;
22334;SDS011;11335;43.848;25.958;2022-08-19T05:46:17;23.30;;;17.23;;
22334;SDS011;11335;43.848;25.958;2022-08-19T05:49:07;26.63;;;17.30;;
22334;SDS011;11335;43.848;25.958;2022-08-19T05:51:53;26.80;;;18.10;;
22334;SDS011;11335;43.848;25.958;2022-08-19T05:54:40;25.80;;;19.63;;
22334;SDS011;11335;43.848;25.958;2022-08-19T05:57:27;25.63;;;19.65;;
22334;SDS011;11335;43.848;25.958;2022-08-19T06:00:14;34.08;;;20.65;;
22334;SDS011;11335;43.848;25.958;2022-08-19T06:03:00;28.27;;;19.98;;
22334;SDS011;11335;43.848;25.958;2022-08-19T06:05:48;29.65;;;19.98;;
22334;SDS011;11335;43.848;25.958;2022-08-19T06:08:34;31.85;;;20.27;;
22334;SDS011;11335;43.848;25.958;2022-08-19T06:11:24;31.27;;;19.75;;
22334;SDS011;11335;43.848;25.958;2022-08-19T06:14:24;29.73;;;19.17;;
22334;SDS011;11335;43.848;25.958;2022-08-19T06:17:12;26.45;;;20.13;;
22334;SDS011;11335;43.848;25.958;2022-08-19T06:19:58;35.22;;;19.77;;
22334;SDS011;11335;43.848;25.958;2022-08-19T06:22:45;41.28;;;20.60;;
22334;SDS011;11335;43.848;25.958;2022-08-19T06:25:32;31.10;;;19.52;;
22334;SDS011;11335;43.848;25.958;2022-08-19T06:28:17;27.55;;;18.58;;
22334;SDS011;11335;43.848;25.958;2022-08-19T06:31:06;27.83;;;19.13;;
22334;SDS011;11335;43.848;25.958;2022-08-19T06:33:52;27.30;;;16.60;;
22334;SDS011;11335;43.848;25.958;2022-08-19T06:36:40;22.42;;;15.82;;
22334;SDS011;11335;43.848;25.958;2022-08-19T06:39:36;21.08;;;15.80;;
22334;SDS011;11335;43.848;25.958;2022-08-19T06:42:24;23.58;;;17.40;;
22334;SDS011;11335;43.848;25.958;2022-08-19T06:45:10;22.92;;;14.88;;
22334;SDS011;11335;43.848;25.958;2022-08-19T06:47:57;24.10;;;15.75;;
22334;SDS011;11335;43.848;25.958;2022-08-19T06:50:43;23.75;;;16.38;;
22334;SDS011;11335;43.848;25.958;2022-08-19T06:53:29;19.88;;;13.27;;
22334;SDS011;11335;43.848;25.958;2022-08-19T06:56:15;19.52;;;14.63;;
22334;SDS011;11335;43.848;25.958;2022-08-19T06:59:04;23.33;;;16.08;;
22334;SDS011;11335;43.848;25.958;2022-08-19T07:01:56;22.33;;;13.50;;
22334;SDS011;11335;43.848;25.958;2022-08-19T07:04:42;20.80;;;12.50;;
22334;SDS011;11335;43.848;25.958;2022-08-19T07:07:31;15.38;;;11.40;;
22334;SDS011;11335;43.848;25.958;2022-08-19T07:10:20;18.70;;;13.38;;
22334;SDS011;11335;43.848;25.958;2022-08-19T07:13:06;19.65;;;11.50;;
22334;SDS011;11335;43.848;25.958;2022-08-19T07:15:53;18.35;;;11.68;;
22334;SDS011;11335;43.848;25.958;2022-08-19T07:18:39;16.48;;;10.93;;
22334;SDS011;11335;43.848;25.958;2022-08-19T07:21:26;13.93;;;9.98;;
22334;SDS011;11335;43.848;25.958;2022-08-19T07:24:15;15.43;;;10.00;;
22334;SDS011;11335;43.848;25.958;2022-08-19T07:27:03;13.50;;;10.23;;
22334;SDS011;11335;43.848;25.958;2022-08-19T07:29:50;15.18;;;9.40;;
22334;SDS011;11335;43.848;25.958;2022-08-19T07:32:36;13.00;;;9.35;;
22334;SDS011;11335;43.848;25.958;2022-08-19T07:35:22;13.48;;;9.68;;
22334;SDS011;11335;43.848;25.958;2022-08-19T07:38:08;12.98;;;9.55;;
22334;SDS011;11335;43.848;25.958;2022-08-19T07:40:54;14.60;;;9.02;;
22334;SDS011;11335;43.848;25.958;2022-08-19T07:43:40;12.95;;;9.20;;
22334;SDS011;11335;43.848;25.958;2022-08-19T07:46:30;12.38;;;9.05;;
22334;SDS011;11335;43.848;25.958;2022-08-19T07:49:20;10.60;;;9.25;;
22334;SDS011;11335;43.848;25.958;2022-08-19T07:52:08;13.80;;;9.55;;
22334;SDS011;11335;43.848;25.958;2022-08-19T07:54:54;11.40;;;10.18;;
22334;SDS011;11335;43.848;25.958;2022-08-19T07:57:39;18.00;;;14.07;;
22334;SDS011;11335;43.848;25.958;2022-08-19T08:00:25;12.40;;;9.43;;
22334;SDS011;11335;43.848;25.958;2022-08-19T08:03:17;13.95;;;8.95;;
22334;SDS011;11335;43.848;25.958;2022-08-19T08:06:05;15.45;;;8.98;;
22334;SDS011;11335;43.848;25.958;2022-08-19T08:09:09;13.27;;;8.75;;
22334;SDS011;11335;43.848;25.958;2022-08-19T08:11:59;11.88;;;8.43;;
22334;SDS011;11335;43.848;25.958;2022-08-19T08:14:52;17.63;;;13.10;;
22334;SDS011;11335;43.848;25.958;2022-08-19T08:17:39;13.50;;;10.02;;
22334;SDS011;11335;43.848;25.958;2022-08-19T08:20:25;12.70;;;8.65;;
22334;SDS011;11335;43.848;25.958;2022-08-19T08:23:11;12.32;;;8.65;;
22334;SDS011;11335;43.848;25.958;2022-08-19T08:26:13;11.80;;;9.13;;
22334;SDS011;11335;43.848;25.958;2022-08-19T08:29:02;12.10;;;9.38;;
22334;SDS011;11335;43.848;25.958;2022-08-19T08:31:48;13.85;;;9.13;;
22334;SDS011;11335;43.848;25.958;2022-08-19T08:34:34;13.68;;;9.35;;
22334;SDS011;11335;43.848;25.958;2022-08-19T08:37:22;13.38;;;9.20;;
22334;SDS011;11335;43.848;25.958;2022-08-19T08:40:19;13.93;;;9.10;;
22334;SDS011;11335;43.848;25.958;2022-08-19T08:46:13;13.48;;;8.88;;
22334;SDS011;11335;43.848;25.958;2022-08-19T08:55:08;12.13;;;9.32;;
22334;SDS011;11335;43.848;25.958;2022-08-19T08:58:03;13.93;;;9.13;;
22334;SDS011;11335;43.848;25.958;2022-08-19T09:00:52;11.77;;;9.27;;
22334;SDS011;11335;43.848;25.958;2022-08-19T09:03:39;13.82;;;9.38;;
22334;SDS011;11335;43.848;25.958;2022-08-19T09:06:31;16.85;;;9.45;;
22334;SDS011;11335;43.848;25.958;2022-08-19T09:09:29;10.60;;;9.35;;
22334;SDS011;11335;43.848;25.958;2022-08-19T09:12:44;11.85;;;9.63;;
22334;SDS011;11335;43.848;25.958;2022-08-19T09:15:47;19.50;;;9.10;;
22334;SDS011;11335;43.848;25.958;2022-08-19T09:18:41;13.80;;;9.07;;
22334;SDS011;11335;43.848;25.958;2022-08-19T09:21:32;12.70;;;9.40;;
22334;SDS011;11335;43.848;25.958;2022-08-19T09:24:19;11.32;;;9.30;;
22334;SDS011;11335;43.848;25.958;2022-08-19T09:27:05;14.73;;;9.73;;
22334;SDS011;11335;43.848;25.958;2022-08-19T09:29:51;16.08;;;9.73;;
22334;SDS011;11335;43.848;25.958;2022-08-19T09:32:38;11.55;;;8.70;;
22334;SDS011;11335;43.848;25.958;2022-08-19T09:35:28;14.27;;;10.18;;
22334;SDS011;11335;43.848;25.958;2022-08-19T09:38:15;13.85;;;9.40;;
22334;SDS011;11335;43.848;25.958;2022-08-19T09:41:02;13.23;;;9.43;;
22334;SDS011;11335;43.848;25.958;2022-08-19T09:43:50;12.10;;;9.25;;
22334;SDS011;11335;43.848;25.958;2022-08-19T09:46:41;13.55;;;8.55;;
22334;SDS011;11335;43.848;25.958;2022-08-19T09:49:27;13.25;;;8.85;;
22334;SDS011;11335;43.848;25.958;2022-08-19T09:52:13;10.98;;;8.57;;
22334;SDS011;11335;43.848;25.958;2022-08-19T09:55:00;9.93;;;8.48;;
22334;SDS011;11335;43.848;25.958;2022-08-19T09:57:46;17.45;;;11.43;;
22334;SDS011;11335;43.848;25.958;2022-08-19T10:00:32;10.10;;;8.93;;
22334;SDS011;11335;43.848;25.958;2022-08-19T10:03:17;17.40;;;9.48;;
22334;SDS011;11335;43.848;25.958;2022-08-19T10:06:04;11.95;;;9.18;;
22334;SDS011;11335;43.848;25.958;2022-08-19T10:08:51;10.65;;;9.30;;
22334;SDS011;11335;43.848;25.958;2022-08-19T10:11:41;15.38;;;9.45;;
22334;SDS011;11335;43.848;25.958;2022-08-19T10:14:28;11.77;;;8.85;;
22334;SDS011;11335;43.848;25.958;2022-08-19T10:17:14;10.48;;;8.40;;
22334;SDS011;11335;43.848;25.958;2022-08-19T10:20:00;11.70;;;8.82;;
22334;SDS011;11335;43.848;25.958;2022-08-19T10:22:48;13.55;;;8.40;;
22334;SDS011;11335;43.848;25.958;2022-08-19T10:25:33;13.60;;;8.95;;
22334;SDS011;11335;43.848;25.958;2022-08-19T10:28:20;10.05;;;8.88;;
22334;SDS011;11335;43.848;25.958;2022-08-19T10:31:06;12.38;;;8.85;;
22334;SDS011;11335;43.848;25.958;2022-08-19T10:33:57;13.80;;;9.23;;
22334;SDS011;11335;43.848;25.958;2022-08-19T10:36:43;13.15;;;9.15;;
22334;SDS011;11335;43.848;25.958;2022-08-19T10:39:29;12.43;;;8.60;;
22334;SDS011;11335;43.848;25.958;2022-08-19T10:42:16;12.65;;;9.20;;
22334;SDS011;11335;43.848;25.958;2022-08-19T10:45:04;11.40;;;8.35;;
22334;SDS011;11335;43.848;25.958;2022-08-19T10:47:54;12.93;;;8.65;;
22334;SDS011;11335;43.848;25.958;2022-08-19T10:50:42;16.77;;;9.43;;
22334;SDS011;11335;43.848;25.958;2022-08-19T10:53:47;16.80;;;9.13;;
22334;SDS011;11335;43.848;25.958;2022-08-19T10:56:34;14.98;;;9.27;;
22334;SDS011;11335;43.848;25.958;2022-08-19T10:59:40;10.45;;;9.27;;
22334;SDS011;11335;43.848;25.958;2022-08-19T11:02:26;13.07;;;9.10;;
22334;SDS011;11335;43.848;25.958;2022-08-19T11:05:13;16.02;;;8.30;;
22334;SDS011;11335;43.848;25.958;2022-08-19T11:08:00;11.93;;;8.65;;
22334;SDS011;11335;43.848;25.958;2022-08-19T11:10:49;12.13;;;8.43;;
